sensor_id;sensor_type;location;lat;lon;timestamp;P1;durP1;ratioP1;P2;durP2;ratioP2
59161;SDS011;44942;48.936;8.260;2024-02-28T00:03:45;4.93;;;3.28;;
59161;SDS011;44942;48.936;8.260;2024-02-28T00:08:47;3.35;;;3.05;;
59161;SDS011;44942;48.936;8.260;2024-02-28T00:13:47;3.70;;;3.10;;
59161;SDS011;44942;48.936;8.260;2024-02-28T00:18:48;3.47;;;2.87;;
59161;SDS011;44942;48.936;8.260;2024-02-28T00:23:48;3.57;;;3.27;;
59161;SDS011;44942;48.936;8.260;2024-02-28T00:28:49;3.30;;;3.00;;
59161;SDS011;44942;48.936;8.260;2024-02-28T00:33:50;2.87;;;2.60;;
59161;SDS011;44942;48.936;8.260;2024-02-28T00:38:50;2.90;;;2.70;;
59161;SDS011;44942;48.936;8.260;2024-02-28T00:43:51;3.20;;;2.90;;
59161;SDS011;44942;48.936;8.260;2024-02-28T00:53:53;4.10;;;2.77;;
59161;SDS011;44942;48.936;8.260;2024-02-28T00:58:53;3.27;;;2.80;;
59161;SDS011;44942;48.936;8.260;2024-02-28T01:03:54;3.03;;;2.63;;
59161;SDS011;44942;48.936;8.260;2024-02-28T01:08:54;2.87;;;2.60;;
59161;SDS011;44942;48.936;8.260;2024-02-28T01:13:55;3.00;;;2.70;;
59161;SDS011;44942;48.936;8.260;2024-02-28T01:18:55;2.90;;;2.60;;
59161;SDS011;44942;48.936;8.260;2024-02-28T01:23:56;2.90;;;2.60;;
59161;SDS011;44942;48.936;8.260;2024-02-28T01:28:56;3.13;;;2.57;;
59161;SDS011;44942;48.936;8.260;2024-02-28T01:33:57;3.10;;;2.60;;
59161;SDS011;44942;48.936;8.260;2024-02-28T01:38:58;3.05;;;2.70;;
59161;SDS011;44942;48.936;8.260;2024-02-28T01:43:59;5.35;;;4.43;;
59161;SDS011;44942;48.936;8.260;2024-02-28T01:48:59;5.37;;;4.87;;
59161;SDS011;44942;48.936;8.260;2024-02-28T01:54:00;4.73;;;4.33;;
59161;SDS011;44942;48.936;8.260;2024-02-28T01:59:01;4.73;;;4.30;;
59161;SDS011;44942;48.936;8.260;2024-02-28T02:04:02;4.60;;;3.70;;
59161;SDS011;44942;48.936;8.260;2024-02-28T02:09:03;4.50;;;3.38;;
59161;SDS011;44942;48.936;8.260;2024-02-28T02:14:04;3.37;;;3.03;;
59161;SDS011;44942;48.936;8.260;2024-02-28T02:19:05;3.37;;;3.07;;
59161;SDS011;44942;48.936;8.260;2024-02-28T02:24:08;3.55;;;3.25;;
59161;SDS011;44942;48.936;8.260;2024-02-28T02:29:09;3.97;;;3.40;;
59161;SDS011;44942;48.936;8.260;2024-02-28T02:34:09;3.20;;;2.90;;
59161;SDS011;44942;48.936;8.260;2024-02-28T02:39:10;3.20;;;2.90;;
59161;SDS011;44942;48.936;8.260;2024-02-28T02:44:10;2.80;;;2.53;;
59161;SDS011;44942;48.936;8.260;2024-02-28T02:49:11;3.20;;;2.90;;
59161;SDS011;44942;48.936;8.260;2024-02-28T02:54:11;3.07;;;2.77;;
59161;SDS011;44942;48.936;8.260;2024-02-28T02:59:12;3.67;;;3.17;;
59161;SDS011;44942;48.936;8.260;2024-02-28T03:04:13;2.80;;;2.60;;
59161;SDS011;44942;48.936;8.260;2024-02-28T03:09:13;3.83;;;3.00;;
59161;SDS011;44942;48.936;8.260;2024-02-28T03:14:14;3.10;;;2.80;;
59161;SDS011;44942;48.936;8.260;2024-02-28T03:19:14;4.00;;;2.80;;
59161;SDS011;44942;48.936;8.260;2024-02-28T03:24:15;3.07;;;2.60;;
59161;SDS011;44942;48.936;8.260;2024-02-28T03:29:17;3.35;;;2.75;;
59161;SDS011;44942;48.936;8.260;2024-02-28T03:34:17;3.20;;;2.90;;
59161;SDS011;44942;48.936;8.260;2024-02-28T03:39:18;2.83;;;2.60;;
59161;SDS011;44942;48.936;8.260;2024-02-28T03:44:18;5.37;;;4.87;;
59161;SDS011;44942;48.936;8.260;2024-02-28T03:49:19;6.45;;;5.85;;
59161;SDS011;44942;48.936;8.260;2024-02-28T03:54:20;5.87;;;5.20;;
59161;SDS011;44942;48.936;8.260;2024-02-28T03:59:20;5.00;;;4.50;;
59161;SDS011;44942;48.936;8.260;2024-02-28T04:04:21;4.53;;;4.07;;
59161;SDS011;44942;48.936;8.260;2024-02-28T04:09:21;4.33;;;3.80;;
59161;SDS011;44942;48.936;8.260;2024-02-28T04:14:22;3.60;;;3.30;;
59161;SDS011;44942;48.936;8.260;2024-02-28T04:19:22;3.83;;;3.03;;
59161;SDS011;44942;48.936;8.260;2024-02-28T04:24:23;4.23;;;2.80;;
59161;SDS011;44942;48.936;8.260;2024-02-28T04:29:24;3.27;;;2.90;;
59161;SDS011;44942;48.936;8.260;2024-02-28T04:34:24;3.30;;;3.00;;
59161;SDS011;44942;48.936;8.260;2024-02-28T04:39:25;3.13;;;2.83;;
59161;SDS011;44942;48.936;8.260;2024-02-28T04:44:28;3.00;;;2.70;;
59161;SDS011;44942;48.936;8.260;2024-02-28T04:49:29;4.13;;;2.70;;
59161;SDS011;44942;48.936;8.260;2024-02-28T04:54:30;3.33;;;2.90;;
59161;SDS011;44942;48.936;8.260;2024-02-28T04:59:30;4.00;;;3.13;;
59161;SDS011;44942;48.936;8.260;2024-02-28T05:04:31;12.23;;;7.60;;
59161;SDS011;44942;48.936;8.260;2024-02-28T05:09:32;17.40;;;11.33;;
59161;SDS011;44942;48.936;8.260;2024-02-28T05:14:33;24.75;;;14.20;;
59161;SDS011;44942;48.936;8.260;2024-02-28T05:19:34;24.07;;;15.97;;
59161;SDS011;44942;48.936;8.260;2024-02-28T05:24:34;25.23;;;15.80;;
59161;SDS011;44942;48.936;8.260;2024-02-28T05:29:35;26.73;;;16.60;;
59161;SDS011;44942;48.936;8.260;2024-02-28T05:34:36;28.20;;;16.20;;
59161;SDS011;44942;48.936;8.260;2024-02-28T05:39:36;22.37;;;14.50;;
59161;SDS011;44942;48.936;8.260;2024-02-28T05:44:37;24.27;;;14.77;;
59161;SDS011;44942;48.936;8.260;2024-02-28T05:49:37;24.73;;;14.90;;
59161;SDS011;44942;48.936;8.260;2024-02-28T05:54:39;21.55;;;13.50;;
59161;SDS011;44942;48.936;8.260;2024-02-28T05:59:40;27.63;;;12.73;;
59161;SDS011;44942;48.936;8.260;2024-02-28T06:04:41;20.43;;;12.50;;
59161;SDS011;44942;48.936;8.260;2024-02-28T06:09:41;19.53;;;12.43;;
59161;SDS011;44942;48.936;8.260;2024-02-28T06:14:42;22.60;;;12.07;;
59161;SDS011;44942;48.936;8.260;2024-02-28T06:19:42;18.07;;;11.00;;
59161;SDS011;44942;48.936;8.260;2024-02-28T06:24:43;21.17;;;11.13;;
59161;SDS011;44942;48.936;8.260;2024-02-28T06:29:44;17.47;;;10.37;;
59161;SDS011;44942;48.936;8.260;2024-02-28T06:34:44;18.10;;;10.33;;
59161;SDS011;44942;48.936;8.260;2024-02-28T06:39:45;20.47;;;10.23;;
59161;SDS011;44942;48.936;8.260;2024-02-28T06:44:48;14.15;;;9.18;;
59161;SDS011;44942;48.936;8.260;2024-02-28T06:49:49;42.50;;;11.03;;
59161;SDS011;44942;48.936;8.260;2024-02-28T06:54:49;34.55;;;30.13;;
59161;SDS011;44942;48.936;8.260;2024-02-28T06:59:51;35.08;;;29.83;;
59161;SDS011;44942;48.936;8.260;2024-02-28T07:04:52;28.30;;;23.57;;
59161;SDS011;44942;48.936;8.260;2024-02-28T07:09:53;24.40;;;18.80;;
59161;SDS011;44942;48.936;8.260;2024-02-28T07:14:56;23.63;;;17.45;;
59161;SDS011;44942;48.936;8.260;2024-02-28T07:19:57;18.23;;;15.67;;
59161;SDS011;44942;48.936;8.260;2024-02-28T07:24:57;21.10;;;16.23;;
59161;SDS011;44942;48.936;8.260;2024-02-28T07:29:58;19.20;;;14.77;;
59161;SDS011;44942;48.936;8.260;2024-02-28T07:34:59;18.33;;;15.17;;
59161;SDS011;44942;48.936;8.260;2024-02-28T07:39:59;16.10;;;13.10;;
59161;SDS011;44942;48.936;8.260;2024-02-28T07:45:00;14.40;;;11.70;;
59161;SDS011;44942;48.936;8.260;2024-02-28T07:50:01;13.52;;;11.35;;
59161;SDS011;44942;48.936;8.260;2024-02-28T07:55:01;14.13;;;10.83;;
59161;SDS011;44942;48.936;8.260;2024-02-28T08:00:03;11.85;;;10.48;;
59161;SDS011;44942;48.936;8.260;2024-02-28T08:05:04;13.60;;;10.35;;
59161;SDS011;44942;48.936;8.260;2024-02-28T08:10:07;13.70;;;10.00;;
59161;SDS011;44942;48.936;8.260;2024-02-28T08:15:10;10.82;;;8.85;;
59161;SDS011;44942;48.936;8.260;2024-02-28T08:20:10;11.35;;;8.45;;
59161;SDS011;44942;48.936;8.260;2024-02-28T08:25:12;9.32;;;8.35;;
59161;SDS011;44942;48.936;8.260;2024-02-28T08:30:13;9.20;;;7.00;;
59161;SDS011;44942;48.936;8.260;2024-02-28T08:35:13;9.85;;;6.88;;
59161;SDS011;44942;48.936;8.260;2024-02-28T08:40:14;8.00;;;7.20;;
59161;SDS011;44942;48.936;8.260;2024-02-28T08:45:15;7.20;;;6.37;;
59161;SDS011;44942;48.936;8.260;2024-02-28T08:50:15;7.93;;;6.50;;
59161;SDS011;44942;48.936;8.260;2024-02-28T08:55:16;7.63;;;6.30;;
59161;SDS011;44942;48.936;8.260;2024-02-28T09:00:18;6.13;;;5.53;;
59161;SDS011;44942;48.936;8.260;2024-02-28T09:05:19;6.15;;;5.45;;
59161;SDS011;44942;48.936;8.260;2024-02-28T09:10:20;8.13;;;5.73;;
59161;SDS011;44942;48.936;8.260;2024-02-28T09:15:23;7.63;;;5.63;;
59161;SDS011;44942;48.936;8.260;2024-02-28T09:25:25;8.53;;;5.20;;
59161;SDS011;44942;48.936;8.260;2024-02-28T09:30:26;5.80;;;4.93;;
59161;SDS011;44942;48.936;8.260;2024-02-28T09:35:26;8.13;;;4.90;;
59161;SDS011;44942;48.936;8.260;2024-02-28T09:40:27;8.90;;;5.03;;
59161;SDS011;44942;48.936;8.260;2024-02-28T09:45:31;7.15;;;5.03;;
59161;SDS011;44942;48.936;8.260;2024-02-28T09:55:33;5.03;;;4.50;;
59161;SDS011;44942;48.936;8.260;2024-02-28T10:00:33;5.23;;;4.43;;
59161;SDS011;44942;48.936;8.260;2024-02-28T10:05:35;4.65;;;4.25;;
59161;SDS011;44942;48.936;8.260;2024-02-28T10:10:38;4.57;;;4.05;;
59161;SDS011;44942;48.936;8.260;2024-02-28T10:15:44;4.75;;;3.83;;
59161;SDS011;44942;48.936;8.260;2024-02-28T10:20:45;5.13;;;4.20;;
59161;SDS011;44942;48.936;8.260;2024-02-28T10:25:46;4.30;;;3.90;;
59161;SDS011;44942;48.936;8.260;2024-02-28T10:35:50;4.13;;;3.30;;
59161;SDS011;44942;48.936;8.260;2024-02-28T10:40:53;4.20;;;3.80;;
59161;SDS011;44942;48.936;8.260;2024-02-28T10:45:58;3.50;;;3.20;;
59161;SDS011;44942;48.936;8.260;2024-02-28T10:50:59;3.30;;;3.00;;
59161;SDS011;44942;48.936;8.260;2024-02-28T10:56:04;4.57;;;3.28;;
59161;SDS011;44942;48.936;8.260;2024-02-28T11:01:06;3.92;;;3.20;;
59161;SDS011;44942;48.936;8.260;2024-02-28T11:06:21;3.55;;;3.10;;
59161;SDS011;44942;48.936;8.260;2024-02-28T11:11:22;4.88;;;3.40;;
59161;SDS011;44942;48.936;8.260;2024-02-28T11:16:32;3.20;;;2.90;;
59161;SDS011;44942;48.936;8.260;2024-02-28T11:21:34;4.80;;;3.70;;
59161;SDS011;44942;48.936;8.260;2024-02-28T11:26:35;4.40;;;3.55;;
59161;SDS011;44942;48.936;8.260;2024-02-28T11:31:35;3.30;;;3.00;;
59161;SDS011;44942;48.936;8.260;2024-02-28T11:36:36;5.20;;;3.17;;
59161;SDS011;44942;48.936;8.260;2024-02-28T11:46:43;3.42;;;3.13;;
59161;SDS011;44942;48.936;8.260;2024-02-28T11:51:49;3.40;;;3.00;;
59161;SDS011;44942;48.936;8.260;2024-02-28T11:56:50;3.73;;;2.97;;
59161;SDS011;44942;48.936;8.260;2024-02-28T12:01:51;3.70;;;2.83;;
59161;SDS011;44942;48.936;8.260;2024-02-28T12:06:52;3.75;;;2.63;;
59161;SDS011;44942;48.936;8.260;2024-02-28T12:11:52;4.80;;;2.77;;
59161;SDS011;44942;48.936;8.260;2024-02-28T12:16:53;4.27;;;2.90;;
59161;SDS011;44942;48.936;8.260;2024-02-28T12:21:54;3.03;;;2.73;;
59161;SDS011;44942;48.936;8.260;2024-02-28T12:26:55;4.63;;;2.95;;
59161;SDS011;44942;48.936;8.260;2024-02-28T12:31:55;3.10;;;2.67;;
59161;SDS011;44942;48.936;8.260;2024-02-28T12:36:56;2.70;;;2.50;;
59161;SDS011;44942;48.936;8.260;2024-02-28T12:42:00;3.03;;;2.55;;
59161;SDS011;44942;48.936;8.260;2024-02-28T12:47:00;4.10;;;2.55;;
59161;SDS011;44942;48.936;8.260;2024-02-28T12:52:01;2.60;;;2.40;;
59161;SDS011;44942;48.936;8.260;2024-02-28T12:57:02;3.28;;;2.60;;
59161;SDS011;44942;48.936;8.260;2024-02-28T13:02:05;2.70;;;2.50;;
59161;SDS011;44942;48.936;8.260;2024-02-28T13:12:07;2.60;;;2.40;;
59161;SDS011;44942;48.936;8.260;2024-02-28T13:17:08;3.22;;;2.20;;
59161;SDS011;44942;48.936;8.260;2024-02-28T13:22:09;2.43;;;2.23;;
59161;SDS011;44942;48.936;8.260;2024-02-28T13:27:09;2.70;;;2.50;;
59161;SDS011;44942;48.936;8.260;2024-02-28T13:32:10;2.90;;;2.60;;
59161;SDS011;44942;48.936;8.260;2024-02-28T13:37:10;3.00;;;2.50;;
59161;SDS011;44942;48.936;8.260;2024-02-28T13:42:12;2.67;;;2.47;;
59161;SDS011;44942;48.936;8.260;2024-02-28T13:47:13;4.65;;;2.35;;
59161;SDS011;44942;48.936;8.260;2024-02-28T13:52:14;5.63;;;2.58;;
59161;SDS011;44942;48.936;8.260;2024-02-28T13:57:14;2.87;;;2.20;;
59161;SDS011;44942;48.936;8.260;2024-02-28T14:02:15;2.45;;;2.20;;
59161;SDS011;44942;48.936;8.260;2024-02-28T14:07:16;3.40;;;3.08;;
59161;SDS011;44942;48.936;8.260;2024-02-28T14:12:17;3.53;;;3.23;;
59161;SDS011;44942;48.936;8.260;2024-02-28T14:17:18;6.18;;;3.60;;
59161;SDS011;44942;48.936;8.260;2024-02-28T14:22:18;4.47;;;3.33;;
59161;SDS011;44942;48.936;8.260;2024-02-28T14:27:19;4.60;;;3.25;;
59161;SDS011;44942;48.936;8.260;2024-02-28T14:32:19;3.40;;;3.10;;
59161;SDS011;44942;48.936;8.260;2024-02-28T14:37:20;3.13;;;2.83;;
59161;SDS011;44942;48.936;8.260;2024-02-28T14:42:21;3.92;;;2.95;;
59161;SDS011;44942;48.936;8.260;2024-02-28T14:47:22;4.45;;;3.10;;
59161;SDS011;44942;48.936;8.260;2024-02-28T14:52:22;3.90;;;2.80;;
59161;SDS011;44942;48.936;8.260;2024-02-28T14:57:24;3.20;;;2.75;;
59161;SDS011;44942;48.936;8.260;2024-02-28T15:02:25;2.83;;;2.57;;
59161;SDS011;44942;48.936;8.260;2024-02-28T15:07:26;2.83;;;2.53;;
59161;SDS011;44942;48.936;8.260;2024-02-28T15:12:27;2.50;;;2.30;;
59161;SDS011;44942;48.936;8.260;2024-02-28T15:17:27;2.90;;;2.60;;
59161;SDS011;44942;48.936;8.260;2024-02-28T15:22:28;3.93;;;2.63;;
59161;SDS011;44942;48.936;8.260;2024-02-28T15:27:29;2.40;;;2.20;;
59161;SDS011;44942;48.936;8.260;2024-02-28T15:32:30;2.67;;;2.47;;
59161;SDS011;44942;48.936;8.260;2024-02-28T15:37:32;4.68;;;2.58;;
59161;SDS011;44942;48.936;8.260;2024-02-28T15:42:33;4.32;;;2.67;;
59161;SDS011;44942;48.936;8.260;2024-02-28T15:47:34;2.70;;;2.50;;
59161;SDS011;44942;48.936;8.260;2024-02-28T15:52:35;2.53;;;2.33;;
59161;SDS011;44942;48.936;8.260;2024-02-28T15:57:36;18.05;;;2.90;;
59161;SDS011;44942;48.936;8.260;2024-02-28T16:02:36;5.63;;;2.90;;
59161;SDS011;44942;48.936;8.260;2024-02-28T16:07:37;3.60;;;2.47;;
59161;SDS011;44942;48.936;8.260;2024-02-28T16:12:37;4.90;;;3.00;;
59161;SDS011;44942;48.936;8.260;2024-02-28T16:17:38;6.33;;;2.40;;
59161;SDS011;44942;48.936;8.260;2024-02-28T16:22:39;3.77;;;2.97;;
59161;SDS011;44942;48.936;8.260;2024-02-28T16:32:41;7.27;;;3.00;;
59161;SDS011;44942;48.936;8.260;2024-02-28T16:37:41;5.93;;;3.10;;
59161;SDS011;44942;48.936;8.260;2024-02-28T16:42:42;3.70;;;2.80;;
59161;SDS011;44942;48.936;8.260;2024-02-28T16:47:43;4.90;;;2.63;;
59161;SDS011;44942;48.936;8.260;2024-02-28T16:52:43;5.77;;;3.17;;
59161;SDS011;44942;48.936;8.260;2024-02-28T16:57:44;3.83;;;2.53;;
59161;SDS011;44942;48.936;8.260;2024-02-28T17:02:44;4.70;;;3.77;;
59161;SDS011;44942;48.936;8.260;2024-02-28T17:07:45;4.47;;;4.00;;
59161;SDS011;44942;48.936;8.260;2024-02-28T17:12:45;5.27;;;4.13;;
59161;SDS011;44942;48.936;8.260;2024-02-28T17:17:46;5.50;;;3.87;;
59161;SDS011;44942;48.936;8.260;2024-02-28T17:22:47;3.87;;;3.47;;
59161;SDS011;44942;48.936;8.260;2024-02-28T17:27:47;4.10;;;3.30;;
59161;SDS011;44942;48.936;8.260;2024-02-28T17:32:48;3.57;;;3.10;;
59161;SDS011;44942;48.936;8.260;2024-02-28T17:37:49;3.40;;;2.70;;
59161;SDS011;44942;48.936;8.260;2024-02-28T17:42:49;4.03;;;3.20;;
59161;SDS011;44942;48.936;8.260;2024-02-28T17:47:50;4.73;;;3.00;;
59161;SDS011;44942;48.936;8.260;2024-02-28T17:52:51;3.70;;;3.00;;
59161;SDS011;44942;48.936;8.260;2024-02-28T17:57:51;3.73;;;2.67;;
59161;SDS011;44942;48.936;8.260;2024-02-28T18:02:52;3.47;;;2.73;;
59161;SDS011;44942;48.936;8.260;2024-02-28T18:12:55;4.13;;;2.78;;
59161;SDS011;44942;48.936;8.260;2024-02-28T18:17:56;3.70;;;2.73;;
59161;SDS011;44942;48.936;8.260;2024-02-28T18:22:56;3.37;;;2.60;;
59161;SDS011;44942;48.936;8.260;2024-02-28T18:27:57;3.00;;;2.70;;
59161;SDS011;44942;48.936;8.260;2024-02-28T18:32:58;4.80;;;2.65;;
59161;SDS011;44942;48.936;8.260;2024-02-28T18:37:58;3.28;;;2.80;;
59161;SDS011;44942;48.936;8.260;2024-02-28T18:42:59;3.92;;;2.50;;
59161;SDS011;44942;48.936;8.260;2024-02-28T18:48:00;2.87;;;2.57;;
59161;SDS011;44942;48.936;8.260;2024-02-28T18:53:01;3.13;;;2.50;;
59161;SDS011;44942;48.936;8.260;2024-02-28T18:58:03;2.60;;;2.40;;
59161;SDS011;44942;48.936;8.260;2024-02-28T19:08:05;3.27;;;2.60;;
59161;SDS011;44942;48.936;8.260;2024-02-28T19:13:06;2.60;;;2.30;;
59161;SDS011;44942;48.936;8.260;2024-02-28T19:18:08;3.35;;;2.60;;
59161;SDS011;44942;48.936;8.260;2024-02-28T19:23:09;2.50;;;2.30;;
59161;SDS011;44942;48.936;8.260;2024-02-28T19:28:10;2.60;;;2.40;;
59161;SDS011;44942;48.936;8.260;2024-02-28T19:33:10;2.57;;;2.33;;
59161;SDS011;44942;48.936;8.260;2024-02-28T19:38:11;2.83;;;2.63;;
59161;SDS011;44942;48.936;8.260;2024-02-28T19:43:11;2.73;;;2.53;;
59161;SDS011;44942;48.936;8.260;2024-02-28T19:48:12;2.70;;;2.50;;
59161;SDS011;44942;48.936;8.260;2024-02-28T19:53:12;2.60;;;2.33;;
59161;SDS011;44942;48.936;8.260;2024-02-28T19:58:13;2.70;;;2.50;;
59161;SDS011;44942;48.936;8.260;2024-02-28T20:03:14;2.70;;;2.50;;
59161;SDS011;44942;48.936;8.260;2024-02-28T20:08:14;2.60;;;2.40;;
59161;SDS011;44942;48.936;8.260;2024-02-28T20:13:16;3.08;;;2.58;;
59161;SDS011;44942;48.936;8.260;2024-02-28T20:18:17;2.33;;;2.13;;
59161;SDS011;44942;48.936;8.260;2024-02-28T20:23:17;2.80;;;2.60;;
59161;SDS011;44942;48.936;8.260;2024-02-28T20:28:18;2.55;;;2.35;;
59161;SDS011;44942;48.936;8.260;2024-02-28T20:33:19;2.43;;;2.23;;
59161;SDS011;44942;48.936;8.260;2024-02-28T20:38:20;2.50;;;2.30;;
59161;SDS011;44942;48.936;8.260;2024-02-28T20:43:23;3.08;;;2.63;;
59161;SDS011;44942;48.936;8.260;2024-02-28T20:48:24;3.17;;;2.87;;
59161;SDS011;44942;48.936;8.260;2024-02-28T20:53:24;22.00;;;3.77;;
59161;SDS011;44942;48.936;8.260;2024-02-28T20:58:25;10.35;;;2.97;;
59161;SDS011;44942;48.936;8.260;2024-02-28T21:03:26;8.20;;;2.80;;
59161;SDS011;44942;48.936;8.260;2024-02-28T21:08:27;5.13;;;3.05;;
59161;SDS011;44942;48.936;8.260;2024-02-28T21:13:28;10.00;;;3.17;;
59161;SDS011;44942;48.936;8.260;2024-02-28T21:18:29;4.80;;;3.25;;
59161;SDS011;44942;48.936;8.260;2024-02-28T21:23:29;3.33;;;2.90;;
59161;SDS011;44942;48.936;8.260;2024-02-28T21:28:30;3.83;;;3.00;;
59161;SDS011;44942;48.936;8.260;2024-02-28T21:33:31;3.43;;;2.97;;
59161;SDS011;44942;48.936;8.260;2024-02-28T21:38:31;3.20;;;2.90;;
59161;SDS011;44942;48.936;8.260;2024-02-28T21:43:32;3.63;;;2.70;;
59161;SDS011;44942;48.936;8.260;2024-02-28T21:48:33;3.40;;;3.03;;
59161;SDS011;44942;48.936;8.260;2024-02-28T21:53:33;3.33;;;3.03;;
59161;SDS011;44942;48.936;8.260;2024-02-28T21:58:34;4.27;;;3.07;;
59161;SDS011;44942;48.936;8.260;2024-02-28T22:03:35;4.43;;;2.80;;
59161;SDS011;44942;48.936;8.260;2024-02-28T22:08:35;3.40;;;2.93;;
59161;SDS011;44942;48.936;8.260;2024-02-28T22:13:36;2.83;;;2.63;;
59161;SDS011;44942;48.936;8.260;2024-02-28T22:18:37;3.70;;;2.80;;
59161;SDS011;44942;48.936;8.260;2024-02-28T22:23:37;3.53;;;3.00;;
59161;SDS011;44942;48.936;8.260;2024-02-28T22:28:38;3.53;;;3.20;;
59161;SDS011;44942;48.936;8.260;2024-02-28T22:33:38;4.33;;;3.10;;
59161;SDS011;44942;48.936;8.260;2024-02-28T22:38:39;3.20;;;2.90;;
59161;SDS011;44942;48.936;8.260;2024-02-28T22:43:39;3.13;;;2.83;;
59161;SDS011;44942;48.936;8.260;2024-02-28T22:48:40;5.43;;;2.83;;
59161;SDS011;44942;48.936;8.260;2024-02-28T22:53:41;4.57;;;2.63;;
59161;SDS011;44942;48.936;8.260;2024-02-28T22:58:41;3.43;;;3.13;;
59161;SDS011;44942;48.936;8.260;2024-02-28T23:03:42;3.50;;;3.00;;
59161;SDS011;44942;48.936;8.260;2024-02-28T23:08:42;3.57;;;3.23;;
59161;SDS011;44942;48.936;8.260;2024-02-28T23:13:43;3.30;;;3.00;;
59161;SDS011;44942;48.936;8.260;2024-02-28T23:18:43;3.30;;;2.90;;
59161;SDS011;44942;48.936;8.260;2024-02-28T23:23:44;3.60;;;3.30;;
59161;SDS011;44942;48.936;8.260;2024-02-28T23:28:45;3.70;;;3.20;;
59161;SDS011;44942;48.936;8.260;2024-02-28T23:33:45;4.63;;;3.50;;
59161;SDS011;44942;48.936;8.260;2024-02-28T23:38:46;3.73;;;3.13;;
59161;SDS011;44942;48.936;8.260;2024-02-28T23:43:46;3.95;;;3.25;;
59161;SDS011;44942;48.936;8.260;2024-02-28T23:48:47;5.03;;;3.37;;
59161;SDS011;44942;48.936;8.260;2024-02-28T23:53:48;3.90;;;3.43;;
59161;SDS011;44942;48.936;8.260;2024-02-28T23:58:48;4.10;;;3.70;;
